sensor_id;sensor_type;location;lat;lon;timestamp;temperature;humidity
11446;DHT22;5779;64.178;15.432;2023-03-01T00:00:20;3.00;99.90
11446;DHT22;5779;64.178;15.432;2023-03-01T00:03:07;3.00;99.90
11446;DHT22;5779;64.178;15.432;2023-03-01T00:05:53;3.10;99.90
11446;DHT22;5779;64.178;15.432;2023-03-01T00:08:42;3.20;99.90
11446;DHT22;5779;64.178;15.432;2023-03-01T00:11:30;3.20;99.90
11446;DHT22;5779;64.178;15.432;2023-03-01T00:14:16;3.20;99.90
11446;DHT22;5779;64.178;15.432;2023-03-01T00:17:03;3.20;99.90
11446;DHT22;5779;64.178;15.432;2023-03-01T00:19:50;3.20;99.90
11446;DHT22;5779;64.178;15.432;2023-03-01T00:22:37;3.10;99.90
11446;DHT22;5779;64.178;15.432;2023-03-01T00:25:26;3.10;99.90
11446;DHT22;5779;64.178;15.432;2023-03-01T00:28:13;3.20;99.90
11446;DHT22;5779;64.178;15.432;2023-03-01T00:31:03;3.20;99.90
11446;DHT22;5779;64.178;15.432;2023-03-01T00:33:52;3.20;99.90
11446;DHT22;5779;64.178;15.432;2023-03-01T00:36:42;3.10;99.90
11446;DHT22;5779;64.178;15.432;2023-03-01T00:39:29;3.20;99.90
11446;DHT22;5779;64.178;15.432;2023-03-01T00:42:17;3.20;99.90
11446;DHT22;5779;64.178;15.432;2023-03-01T00:45:05;3.20;99.90
11446;DHT22;5779;64.178;15.432;2023-03-01T00:47:53;3.30;99.90
11446;DHT22;5779;64.178;15.432;2023-03-01T00:50:39;3.20;99.90
11446;DHT22;5779;64.178;15.432;2023-03-01T00:53:26;3.20;99.90
11446;DHT22;5779;64.178;15.432;2023-03-01T00:56:14;3.20;99.90
11446;DHT22;5779;64.178;15.432;2023-03-01T00:59:02;3.20;99.90
11446;DHT22;5779;64.178;15.432;2023-03-01T01:01:49;3.20;99.90
11446;DHT22;5779;64.178;15.432;2023-03-01T01:04:36;3.30;99.90
11446;DHT22;5779;64.178;15.432;2023-03-01T01:07:23;3.40;99.90
11446;DHT22;5779;64.178;15.432;2023-03-01T01:10:11;3.30;99.90
11446;DHT22;5779;64.178;15.432;2023-03-01T01:13:02;3.30;99.90
11446;DHT22;5779;64.178;15.432;2023-03-01T01:15:50;3.30;99.90
11446;DHT22;5779;64.178;15.432;2023-03-01T01:18:37;3.30;99.90
11446;DHT22;5779;64.178;15.432;2023-03-01T01:21:25;3.20;99.90
11446;DHT22;5779;64.178;15.432;2023-03-01T01:24:12;3.20;99.90
11446;DHT22;5779;64.178;15.432;2023-03-01T01:26:59;3.20;99.90
11446;DHT22;5779;64.178;15.432;2023-03-01T01:29:45;3.20;99.90
11446;DHT22;5779;64.178;15.432;2023-03-01T01:32:34;3.20;99.90
11446;DHT22;5779;64.178;15.432;2023-03-01T01:35:21;3.20;99.90
11446;DHT22;5779;64.178;15.432;2023-03-01T01:38:07;3.10;99.90
11446;DHT22;5779;64.178;15.432;2023-03-01T01:40:54;3.10;99.90
11446;DHT22;5779;64.178;15.432;2023-03-01T01:43:43;3.10;99.90
11446;DHT22;5779;64.178;15.432;2023-03-01T01:46:31;3.10;99.90
11446;DHT22;5779;64.178;15.432;2023-03-01T01:49:30;3.10;99.90
11446;DHT22;5779;64.178;15.432;2023-03-01T01:52:21;3.10;99.90
11446;DHT22;5779;64.178;15.432;2023-03-01T01:55:13;3.10;99.90
11446;DHT22;5779;64.178;15.432;2023-03-01T01:58:04;3.20;99.90
11446;DHT22;5779;64.178;15.432;2023-03-01T02:00:52;3.10;99.90
11446;DHT22;5779;64.178;15.432;2023-03-01T02:03:39;3.00;99.90
11446;DHT22;5779;64.178;15.432;2023-03-01T02:06:33;3.00;99.90
11446;DHT22;5779;64.178;15.432;2023-03-01T02:09:21;3.00;99.90
11446;DHT22;5779;64.178;15.432;2023-03-01T02:12:09;3.10;99.90
11446;DHT22;5779;64.178;15.432;2023-03-01T02:14:56;3.00;99.90
11446;DHT22;5779;64.178;15.432;2023-03-01T02:17:43;2.90;99.90
11446;DHT22;5779;64.178;15.432;2023-03-01T02:20:34;2.80;99.90
11446;DHT22;5779;64.178;15.432;2023-03-01T02:23:24;2.70;99.90
11446;DHT22;5779;64.178;15.432;2023-03-01T02:26:19;2.80;99.90
11446;DHT22;5779;64.178;15.432;2023-03-01T02:29:08;2.90;99.90
11446;DHT22;5779;64.178;15.432;2023-03-01T02:31:58;2.80;99.90
11446;DHT22;5779;64.178;15.432;2023-03-01T02:34:46;2.90;99.90
11446;DHT22;5779;64.178;15.432;2023-03-01T02:37:35;2.90;99.90
11446;DHT22;5779;64.178;15.432;2023-03-01T02:40:22;3.00;99.90
11446;DHT22;5779;64.178;15.432;2023-03-01T02:43:10;3.00;99.90
11446;DHT22;5779;64.178;15.432;2023-03-01T02:46:06;2.90;99.90
11446;DHT22;5779;64.178;15.432;2023-03-01T02:48:55;2.80;99.90
11446;DHT22;5779;64.178;15.432;2023-03-01T02:51:52;2.90;99.90
11446;DHT22;5779;64.178;15.432;2023-03-01T02:54:41;2.90;99.90
11446;DHT22;5779;64.178;15.432;2023-03-01T02:57:31;2.90;99.90
11446;DHT22;5779;64.178;15.432;2023-03-01T03:00:21;3.00;99.90
11446;DHT22;5779;64.178;15.432;2023-03-01T03:03:13;3.00;99.90
11446;DHT22;5779;64.178;15.432;2023-03-01T03:06:00;3.00;99.90
11446;DHT22;5779;64.178;15.432;2023-03-01T03:08:47;3.10;99.90
11446;DHT22;5779;64.178;15.432;2023-03-01T03:11:34;3.10;99.90
11446;DHT22;5779;64.178;15.432;2023-03-01T03:14:21;3.00;99.90
11446;DHT22;5779;64.178;15.432;2023-03-01T03:17:08;3.10;99.90
11446;DHT22;5779;64.178;15.432;2023-03-01T03:19:57;3.10;99.90
11446;DHT22;5779;64.178;15.432;2023-03-01T03:22:44;3.10;99.90
11446;DHT22;5779;64.178;15.432;2023-03-01T03:25:31;3.10;99.90
11446;DHT22;5779;64.178;15.432;2023-03-01T03:28:18;3.10;99.90
11446;DHT22;5779;64.178;15.432;2023-03-01T03:31:06;3.10;99.90
11446;DHT22;5779;64.178;15.432;2023-03-01T03:33:53;3.10;99.90
11446;DHT22;5779;64.178;15.432;2023-03-01T03:36:42;3.10;99.90
11446;DHT22;5779;64.178;15.432;2023-03-01T03:39:29;3.10;99.90
11446;DHT22;5779;64.178;15.432;2023-03-01T03:42:20;3.10;99.90
11446;DHT22;5779;64.178;15.432;2023-03-01T03:45:07;3.10;99.90
11446;DHT22;5779;64.178;15.432;2023-03-01T03:47:54;3.10;99.90
11446;DHT22;5779;64.178;15.432;2023-03-01T03:50:41;3.10;99.90
11446;DHT22;5779;64.178;15.432;2023-03-01T03:53:30;3.00;99.90
11446;DHT22;5779;64.178;15.432;2023-03-01T03:56:17;3.00;99.90
11446;DHT22;5779;64.178;15.432;2023-03-01T03:59:04;3.00;99.90
11446;DHT22;5779;64.178;15.432;2023-03-01T04:01:51;3.10;99.90
11446;DHT22;5779;64.178;15.432;2023-03-01T04:04:37;3.10;99.90
11446;DHT22;5779;64.178;15.432;2023-03-01T04:07:24;3.00;99.90
11446;DHT22;5779;64.178;15.432;2023-03-01T04:10:14;3.00;99.90
11446;DHT22;5779;64.178;15.432;2023-03-01T04:13:02;3.10;99.90
11446;DHT22;5779;64.178;15.432;2023-03-01T04:15:49;3.10;99.90
11446;DHT22;5779;64.178;15.432;2023-03-01T04:18:36;3.10;99.90
11446;DHT22;5779;64.178;15.432;2023-03-01T04:21:23;3.10;99.90
11446;DHT22;5779;64.178;15.432;2023-03-01T04:24:10;3.00;99.90
11446;DHT22;5779;64.178;15.432;2023-03-01T04:26:59;3.10;99.90
11446;DHT22;5779;64.178;15.432;2023-03-01T04:29:46;3.10;99.90
11446;DHT22;5779;64.178;15.432;2023-03-01T04:32:32;3.10;99.90
11446;DHT22;5779;64.178;15.432;2023-03-01T04:35:19;3.20;99.90
11446;DHT22;5779;64.178;15.432;2023-03-01T04:38:06;3.20;99.90
11446;DHT22;5779;64.178;15.432;2023-03-01T04:40:53;3.40;99.90
11446;DHT22;5779;64.178;15.432;2023-03-01T04:43:42;3.30;99.90
11446;DHT22;5779;64.178;15.432;2023-03-01T04:46:28;3.30;99.90
11446;DHT22;5779;64.178;15.432;2023-03-01T04:49:15;3.30;99.90
11446;DHT22;5779;64.178;15.432;2023-03-01T04:52:03;3.20;99.90
11446;DHT22;5779;64.178;15.432;2023-03-01T04:54:50;3.30;99.90
11446;DHT22;5779;64.178;15.432;2023-03-01T04:57:37;3.40;99.90
11446;DHT22;5779;64.178;15.432;2023-03-01T05:00:25;3.40;99.90
11446;DHT22;5779;64.178;15.432;2023-03-01T05:03:12;3.30;99.90
11446;DHT22;5779;64.178;15.432;2023-03-01T05:06:03;3.40;99.90
11446;DHT22;5779;64.178;15.432;2023-03-01T05:08:50;3.40;99.90
11446;DHT22;5779;64.178;15.432;2023-03-01T05:11:37;3.50;99.90
11446;DHT22;5779;64.178;15.432;2023-03-01T05:14:25;3.40;99.90
11446;DHT22;5779;64.178;15.432;2023-03-01T05:17:15;3.40;99.90
11446;DHT22;5779;64.178;15.432;2023-03-01T05:20:02;3.50;99.90
11446;DHT22;5779;64.178;15.432;2023-03-01T05:22:57;3.50;99.90
11446;DHT22;5779;64.178;15.432;2023-03-01T05:25:44;3.50;99.90
11446;DHT22;5779;64.178;15.432;2023-03-01T05:28:32;3.50;99.90
11446;DHT22;5779;64.178;15.432;2023-03-01T05:31:19;3.50;99.90
11446;DHT22;5779;64.178;15.432;2023-03-01T05:34:07;3.60;99.90
11446;DHT22;5779;64.178;15.432;2023-03-01T05:36:54;3.50;99.90
11446;DHT22;5779;64.178;15.432;2023-03-01T05:39:41;3.50;99.90
11446;DHT22;5779;64.178;15.432;2023-03-01T05:42:28;3.50;99.90
11446;DHT22;5779;64.178;15.432;2023-03-01T05:45:16;3.60;99.90
11446;DHT22;5779;64.178;15.432;2023-03-01T05:48:03;3.50;99.90
11446;DHT22;5779;64.178;15.432;2023-03-01T05:50:52;3.50;99.90
11446;DHT22;5779;64.178;15.432;2023-03-01T05:53:39;3.50;99.90
11446;DHT22;5779;64.178;15.432;2023-03-01T05:56:26;3.50;99.90
11446;DHT22;5779;64.178;15.432;2023-03-01T05:59:14;3.50;99.90
11446;DHT22;5779;64.178;15.432;2023-03-01T06:02:01;3.50;99.90
11446;DHT22;5779;64.178;15.432;2023-03-01T06:04:48;3.50;99.90
11446;DHT22;5779;64.178;15.432;2023-03-01T06:07:36;3.50;99.90
11446;DHT22;5779;64.178;15.432;2023-03-01T06:10:23;3.60;99.90
11446;DHT22;5779;64.178;15.432;2023-03-01T06:13:10;3.60;99.90
11446;DHT22;5779;64.178;15.432;2023-03-01T06:15:57;3.60;99.90
11446;DHT22;5779;64.178;15.432;2023-03-01T06:18:44;3.60;99.90
11446;DHT22;5779;64.178;15.432;2023-03-01T06:21:30;3.50;99.90
11446;DHT22;5779;64.178;15.432;2023-03-01T06:24:19;3.50;99.90
11446;DHT22;5779;64.178;15.432;2023-03-01T06:27:05;3.50;99.90
11446;DHT22;5779;64.178;15.432;2023-03-01T06:29:52;3.60;99.90
11446;DHT22;5779;64.178;15.432;2023-03-01T06:32:39;3.60;99.90
11446;DHT22;5779;64.178;15.432;2023-03-01T06:35:27;3.70;99.90
11446;DHT22;5779;64.178;15.432;2023-03-01T06:38:16;3.60;99.90
11446;DHT22;5779;64.178;15.432;2023-03-01T06:41:06;3.60;99.90
11446;DHT22;5779;64.178;15.432;2023-03-01T06:43:53;3.60;99.90
11446;DHT22;5779;64.178;15.432;2023-03-01T06:46:40;3.50;99.90
11446;DHT22;5779;64.178;15.432;2023-03-01T06:49:27;3.50;99.90
11446;DHT22;5779;64.178;15.432;2023-03-01T06:52:13;3.60;99.90
11446;DHT22;5779;64.178;15.432;2023-03-01T06:55:00;3.60;99.90
11446;DHT22;5779;64.178;15.432;2023-03-01T06:57:49;3.60;99.90
11446;DHT22;5779;64.178;15.432;2023-03-01T07:00:39;3.70;99.90
11446;DHT22;5779;64.178;15.432;2023-03-01T07:03:27;3.70;99.90
11446;DHT22;5779;64.178;15.432;2023-03-01T07:06:14;3.80;99.90
11446;DHT22;5779;64.178;15.432;2023-03-01T07:09:02;3.80;99.90
11446;DHT22;5779;64.178;15.432;2023-03-01T07:11:50;3.90;99.90
11446;DHT22;5779;64.178;15.432;2023-03-01T07:14:37;3.80;99.90
11446;DHT22;5779;64.178;15.432;2023-03-01T07:17:24;3.90;99.90
11446;DHT22;5779;64.178;15.432;2023-03-01T07:20:12;3.80;99.90
11446;DHT22;5779;64.178;15.432;2023-03-01T07:22:59;3.90;99.90
11446;DHT22;5779;64.178;15.432;2023-03-01T07:25:51;3.90;99.90
11446;DHT22;5779;64.178;15.432;2023-03-01T07:28:38;3.90;99.90
11446;DHT22;5779;64.178;15.432;2023-03-01T07:31:27;3.80;99.90
11446;DHT22;5779;64.178;15.432;2023-03-01T07:34:13;3.90;99.90
11446;DHT22;5779;64.178;15.432;2023-03-01T07:37:00;3.80;99.90
11446;DHT22;5779;64.178;15.432;2023-03-01T07:39:47;3.90;99.90
11446;DHT22;5779;64.178;15.432;2023-03-01T07:42:34;3.80;99.90
11446;DHT22;5779;64.178;15.432;2023-03-01T07:45:21;3.90;99.90
11446;DHT22;5779;64.178;15.432;2023-03-01T07:48:09;3.90;99.90
11446;DHT22;5779;64.178;15.432;2023-03-01T07:50:58;3.90;99.90
11446;DHT22;5779;64.178;15.432;2023-03-01T07:53:46;4.00;99.90
11446;DHT22;5779;64.178;15.432;2023-03-01T07:56:33;4.00;99.90
11446;DHT22;5779;64.178;15.432;2023-03-01T07:59:20;4.00;99.90
11446;DHT22;5779;64.178;15.432;2023-03-01T08:02:09;4.10;99.90
11446;DHT22;5779;64.178;15.432;2023-03-01T08:04:58;4.00;99.90
11446;DHT22;5779;64.178;15.432;2023-03-01T08:07:44;4.00;99.90
11446;DHT22;5779;64.178;15.432;2023-03-01T08:10:31;4.00;99.90
11446;DHT22;5779;64.178;15.432;2023-03-01T08:13:18;4.10;99.90
11446;DHT22;5779;64.178;15.432;2023-03-01T08:16:09;4.10;99.90
11446;DHT22;5779;64.178;15.432;2023-03-01T08:18:57;4.10;99.90
11446;DHT22;5779;64.178;15.432;2023-03-01T08:21:48;4.10;99.90
11446;DHT22;5779;64.178;15.432;2023-03-01T08:24:35;4.10;99.90
11446;DHT22;5779;64.178;15.432;2023-03-01T08:27:22;4.10;99.90
11446;DHT22;5779;64.178;15.432;2023-03-01T08:30:10;4.10;99.90
11446;DHT22;5779;64.178;15.432;2023-03-01T08:32:56;4.20;99.90
11446;DHT22;5779;64.178;15.432;2023-03-01T08:35:43;4.20;99.90
11446;DHT22;5779;64.178;15.432;2023-03-01T08:38:32;4.20;99.90
11446;DHT22;5779;64.178;15.432;2023-03-01T08:41:19;4.30;99.90
11446;DHT22;5779;64.178;15.432;2023-03-01T08:44:06;4.30;99.90
11446;DHT22;5779;64.178;15.432;2023-03-01T08:46:53;4.20;99.90
11446;DHT22;5779;64.178;15.432;2023-03-01T08:49:40;4.30;99.90
11446;DHT22;5779;64.178;15.432;2023-03-01T08:52:27;4.20;99.90
11446;DHT22;5779;64.178;15.432;2023-03-01T08:55:16;4.30;99.90
11446;DHT22;5779;64.178;15.432;2023-03-01T08:58:03;4.20;99.90
11446;DHT22;5779;64.178;15.432;2023-03-01T09:00:50;4.20;99.90
11446;DHT22;5779;64.178;15.432;2023-03-01T09:03:37;4.30;99.90
11446;DHT22;5779;64.178;15.432;2023-03-01T09:06:24;4.30;99.90
11446;DHT22;5779;64.178;15.432;2023-03-01T09:09:14;4.30;99.90
11446;DHT22;5779;64.178;15.432;2023-03-01T09:12:04;4.30;99.90
11446;DHT22;5779;64.178;15.432;2023-03-01T09:14:51;4.50;99.90
11446;DHT22;5779;64.178;15.432;2023-03-01T09:17:38;4.50;99.90
11446;DHT22;5779;64.178;15.432;2023-03-01T09:20:24;4.50;99.90
11446;DHT22;5779;64.178;15.432;2023-03-01T09:23:11;4.50;99.90
11446;DHT22;5779;64.178;15.432;2023-03-01T09:25:58;4.50;99.90
11446;DHT22;5779;64.178;15.432;2023-03-01T09:28:46;4.60;99.90
11446;DHT22;5779;64.178;15.432;2023-03-01T09:31:33;4.70;99.90
11446;DHT22;5779;64.178;15.432;2023-03-01T09:34:20;4.60;99.90
11446;DHT22;5779;64.178;15.432;2023-03-01T09:37:08;4.60;99.90
11446;DHT22;5779;64.178;15.432;2023-03-01T09:39:55;4.60;99.90
11446;DHT22;5779;64.178;15.432;2023-03-01T09:42:48;4.60;99.90
11446;DHT22;5779;64.178;15.432;2023-03-01T09:45:41;4.70;99.90
11446;DHT22;5779;64.178;15.432;2023-03-01T09:48:36;4.70;99.90
11446;DHT22;5779;64.178;15.432;2023-03-01T09:51:29;4.90;99.90
11446;DHT22;5779;64.178;15.432;2023-03-01T09:54:16;4.80;99.90
11446;DHT22;5779;64.178;15.432;2023-03-01T09:57:15;4.80;99.90
11446;DHT22;5779;64.178;15.432;2023-03-01T10:00:16;4.90;99.90
11446;DHT22;5779;64.178;15.432;2023-03-01T10:03:17;4.90;99.90
11446;DHT22;5779;64.178;15.432;2023-03-01T10:06:13;5.00;99.90
11446;DHT22;5779;64.178;15.432;2023-03-01T10:09:03;5.00;99.90
11446;DHT22;5779;64.178;15.432;2023-03-01T10:11:53;5.00;99.90
11446;DHT22;5779;64.178;15.432;2023-03-01T10:14:48;4.90;99.90
11446;DHT22;5779;64.178;15.432;2023-03-01T10:17:38;5.00;99.90
11446;DHT22;5779;64.178;15.432;2023-03-01T10:20:33;5.00;99.90
11446;DHT22;5779;64.178;15.432;2023-03-01T10:23:24;5.10;99.90
11446;DHT22;5779;64.178;15.432;2023-03-01T10:26:27;5.00;99.90
11446;DHT22;5779;64.178;15.432;2023-03-01T10:29:17;5.10;99.90
11446;DHT22;5779;64.178;15.432;2023-03-01T10:32:05;5.10;99.90
11446;DHT22;5779;64.178;15.432;2023-03-01T10:34:52;5.10;99.90
11446;DHT22;5779;64.178;15.432;2023-03-01T10:37:56;5.20;99.90
11446;DHT22;5779;64.178;15.432;2023-03-01T10:40:53;5.10;99.90
11446;DHT22;5779;64.178;15.432;2023-03-01T10:43:45;5.10;99.90
11446;DHT22;5779;64.178;15.432;2023-03-01T10:46:34;5.30;99.90
11446;DHT22;5779;64.178;15.432;2023-03-01T10:49:21;5.30;99.90
11446;DHT22;5779;64.178;15.432;2023-03-01T10:52:18;5.30;99.90
11446;DHT22;5779;64.178;15.432;2023-03-01T10:55:24;5.20;99.90
11446;DHT22;5779;64.178;15.432;2023-03-01T10:58:20;5.20;99.90
11446;DHT22;5779;64.178;15.432;2023-03-01T11:01:25;5.20;99.90
11446;DHT22;5779;64.178;15.432;2023-03-01T11:04:13;5.20;99.90
11446;DHT22;5779;64.178;15.432;2023-03-01T11:07:01;5.30;99.90
11446;DHT22;5779;64.178;15.432;2023-03-01T11:09:48;5.40;99.90
11446;DHT22;5779;64.178;15.432;2023-03-01T11:12:36;5.50;99.90
11446;DHT22;5779;64.178;15.432;2023-03-01T11:15:26;5.40;99.90
11446;DHT22;5779;64.178;15.432;2023-03-01T11:18:23;5.40;99.90
11446;DHT22;5779;64.178;15.432;2023-03-01T11:21:10;5.10;99.90
11446;DHT22;5779;64.178;15.432;2023-03-01T11:23:58;5.00;99.90
11446;DHT22;5779;64.178;15.432;2023-03-01T11:26:51;5.00;99.90
11446;DHT22;5779;64.178;15.432;2023-03-01T11:29:44;5.00;99.90
11446;DHT22;5779;64.178;15.432;2023-03-01T11:32:36;4.90;99.90
11446;DHT22;5779;64.178;15.432;2023-03-01T11:35:27;4.90;99.90
11446;DHT22;5779;64.178;15.432;2023-03-01T11:38:21;4.80;99.90
11446;DHT22;5779;64.178;15.432;2023-03-01T11:41:13;4.80;99.90
11446;DHT22;5779;64.178;15.432;2023-03-01T11:44:03;4.70;99.90
11446;DHT22;5779;64.178;15.432;2023-03-01T11:47:15;4.80;99.90
11446;DHT22;5779;64.178;15.432;2023-03-01T11:50:15;4.70;99.90
11446;DHT22;5779;64.178;15.432;2023-03-01T11:53:24;4.70;99.90
11446;DHT22;5779;64.178;15.432;2023-03-01T11:56:22;4.60;99.90
11446;DHT22;5779;64.178;15.432;2023-03-01T11:59:56;4.60;99.90
11446;DHT22;5779;64.178;15.432;2023-03-01T12:03:21;4.50;99.90
11446;DHT22;5779;64.178;15.432;2023-03-01T12:06:27;4.60;99.90
11446;DHT22;5779;64.178;15.432;2023-03-01T12:09:49;4.60;99.90
11446;DHT22;5779;64.178;15.432;2023-03-01T12:12:53;4.60;99.90
11446;DHT22;5779;64.178;15.432;2023-03-01T12:15:55;4.60;99.90
11446;DHT22;5779;64.178;15.432;2023-03-01T12:19:26;4.60;99.90
11446;DHT22;5779;64.178;15.432;2023-03-01T12:22:29;4.60;99.90
11446;DHT22;5779;64.178;15.432;2023-03-01T12:25:25;4.50;99.90
11446;DHT22;5779;64.178;15.432;2023-03-01T12:28:24;4.40;99.90
11446;DHT22;5779;64.178;15.432;2023-03-01T12:31:42;4.40;99.90
11446;DHT22;5779;64.178;15.432;2023-03-01T12:34:59;4.30;99.90
11446;DHT22;5779;64.178;15.432;2023-03-01T12:37:54;4.30;99.90
11446;DHT22;5779;64.178;15.432;2023-03-01T12:41:01;4.40;99.90
11446;DHT22;5779;64.178;15.432;2023-03-01T12:44:01;4.50;99.90
11446;DHT22;5779;64.178;15.432;2023-03-01T12:47:00;4.50;99.90
11446;DHT22;5779;64.178;15.432;2023-03-01T12:49:54;4.50;99.90
11446;DHT22;5779;64.178;15.432;2023-03-01T12:52:47;4.50;99.90
11446;DHT22;5779;64.178;15.432;2023-03-01T12:55:37;4.40;99.90
11446;DHT22;5779;64.178;15.432;2023-03-01T12:58:29;4.60;99.90
11446;DHT22;5779;64.178;15.432;2023-03-01T13:01:24;4.70;99.90
11446;DHT22;5779;64.178;15.432;2023-03-01T13:04:28;4.70;99.90
11446;DHT22;5779;64.178;15.432;2023-03-01T13:07:27;4.70;99.90
11446;DHT22;5779;64.178;15.432;2023-03-01T13:10:22;4.70;99.90
11446;DHT22;5779;64.178;15.432;2023-03-01T13:13:20;4.60;99.90
11446;DHT22;5779;64.178;15.432;2023-03-01T13:16:40;4.50;99.90
11446;DHT22;5779;64.178;15.432;2023-03-01T13:19:30;4.50;99.90
11446;DHT22;5779;64.178;15.432;2023-03-01T13:22:29;4.50;99.90
11446;DHT22;5779;64.178;15.432;2023-03-01T13:25:19;4.50;99.90
11446;DHT22;5779;64.178;15.432;2023-03-01T13:28:41;4.50;99.90
11446;DHT22;5779;64.178;15.432;2023-03-01T13:31:59;4.40;99.90
11446;DHT22;5779;64.178;15.432;2023-03-01T13:34:53;4.50;99.90
11446;DHT22;5779;64.178;15.432;2023-03-01T13:37:41;4.60;99.90
11446;DHT22;5779;64.178;15.432;2023-03-01T13:41:00;4.70;99.90
11446;DHT22;5779;64.178;15.432;2023-03-01T13:43:47;4.70;99.90
11446;DHT22;5779;64.178;15.432;2023-03-01T13:46:34;4.50;99.90
11446;DHT22;5779;64.178;15.432;2023-03-01T13:49:23;4.50;99.90
11446;DHT22;5779;64.178;15.432;2023-03-01T13:52:35;4.40;99.90
11446;DHT22;5779;64.178;15.432;2023-03-01T13:55:34;4.40;99.90
11446;DHT22;5779;64.178;15.432;2023-03-01T13:58:26;4.40;99.90
11446;DHT22;5779;64.178;15.432;2023-03-01T14:01:22;4.40;99.90
11446;DHT22;5779;64.178;15.432;2023-03-01T14:04:20;4.40;99.90
11446;DHT22;5779;64.178;15.432;2023-03-01T14:07:11;4.40;99.90
11446;DHT22;5779;64.178;15.432;2023-03-01T14:10:01;4.40;99.90
11446;DHT22;5779;64.178;15.432;2023-03-01T14:12:53;4.40;99.90
11446;DHT22;5779;64.178;15.432;2023-03-01T14:15:46;4.30;99.90
11446;DHT22;5779;64.178;15.432;2023-03-01T14:18:40;4.30;99.90
11446;DHT22;5779;64.178;15.432;2023-03-01T14:21:29;4.40;99.90
11446;DHT22;5779;64.178;15.432;2023-03-01T14:24:21;4.50;99.90
11446;DHT22;5779;64.178;15.432;2023-03-01T14:27:11;4.60;99.90
11446;DHT22;5779;64.178;15.432;2023-03-01T14:30:01;4.60;99.90
11446;DHT22;5779;64.178;15.432;2023-03-01T14:32:54;4.60;99.90
11446;DHT22;5779;64.178;15.432;2023-03-01T14:35:41;4.60;99.90
11446;DHT22;5779;64.178;15.432;2023-03-01T14:38:32;4.50;99.90
11446;DHT22;5779;64.178;15.432;2023-03-01T14:41:22;4.40;99.90
11446;DHT22;5779;64.178;15.432;2023-03-01T14:44:15;4.40;99.90
11446;DHT22;5779;64.178;15.432;2023-03-01T14:47:03;4.30;99.90
11446;DHT22;5779;64.178;15.432;2023-03-01T14:49:57;4.30;99.90
11446;DHT22;5779;64.178;15.432;2023-03-01T14:52:47;4.30;99.90
11446;DHT22;5779;64.178;15.432;2023-03-01T14:55:37;4.30;99.90
11446;DHT22;5779;64.178;15.432;2023-03-01T14:58:26;4.20;99.90
11446;DHT22;5779;64.178;15.432;2023-03-01T15:01:15;4.20;99.90
11446;DHT22;5779;64.178;15.432;2023-03-01T15:04:02;4.30;99.90
11446;DHT22;5779;64.178;15.432;2023-03-01T15:06:52;4.20;99.90
11446;DHT22;5779;64.178;15.432;2023-03-01T15:09:40;4.20;99.90
11446;DHT22;5779;64.178;15.432;2023-03-01T15:12:38;4.20;99.90
11446;DHT22;5779;64.178;15.432;2023-03-01T15:15:35;4.10;99.90
11446;DHT22;5779;64.178;15.432;2023-03-01T15:18:26;4.20;99.90
11446;DHT22;5779;64.178;15.432;2023-03-01T15:21:18;4.30;99.90
11446;DHT22;5779;64.178;15.432;2023-03-01T15:24:17;4.30;99.90
11446;DHT22;5779;64.178;15.432;2023-03-01T15:27:15;4.20;99.90
11446;DHT22;5779;64.178;15.432;2023-03-01T15:30:04;4.20;99.90
11446;DHT22;5779;64.178;15.432;2023-03-01T15:36:36;4.10;99.90
11446;DHT22;5779;64.178;15.432;2023-03-01T15:39:41;4.10;99.90
11446;DHT22;5779;64.178;15.432;2023-03-01T15:42:37;4.00;99.90
11446;DHT22;5779;64.178;15.432;2023-03-01T15:45:26;4.00;99.90
11446;DHT22;5779;64.178;15.432;2023-03-01T15:48:17;4.00;99.90
11446;DHT22;5779;64.178;15.432;2023-03-01T15:51:11;3.90;99.90
11446;DHT22;5779;64.178;15.432;2023-03-01T15:54:02;3.90;99.90
11446;DHT22;5779;64.178;15.432;2023-03-01T15:56:51;3.80;99.90
11446;DHT22;5779;64.178;15.432;2023-03-01T15:59:38;3.80;99.90
11446;DHT22;5779;64.178;15.432;2023-03-01T16:02:25;3.80;99.90
11446;DHT22;5779;64.178;15.432;2023-03-01T16:05:22;3.80;99.90
11446;DHT22;5779;64.178;15.432;2023-03-01T16:08:09;3.70;99.90
11446;DHT22;5779;64.178;15.432;2023-03-01T16:10:56;3.90;99.90
11446;DHT22;5779;64.178;15.432;2023-03-01T16:13:45;3.80;99.90
11446;DHT22;5779;64.178;15.432;2023-03-01T16:16:31;3.90;99.90
11446;DHT22;5779;64.178;15.432;2023-03-01T16:19:18;3.80;99.90
11446;DHT22;5779;64.178;15.432;2023-03-01T16:22:05;3.80;99.90
11446;DHT22;5779;64.178;15.432;2023-03-01T16:24:52;3.90;99.90
11446;DHT22;5779;64.178;15.432;2023-03-01T16:27:41;4.00;99.90
11446;DHT22;5779;64.178;15.432;2023-03-01T16:30:29;4.00;99.90
11446;DHT22;5779;64.178;15.432;2023-03-01T16:33:17;3.90;99.90
11446;DHT22;5779;64.178;15.432;2023-03-01T16:36:07;4.00;99.90
11446;DHT22;5779;64.178;15.432;2023-03-01T16:38:55;3.80;99.90
11446;DHT22;5779;64.178;15.432;2023-03-01T16:41:41;3.80;99.90
11446;DHT22;5779;64.178;15.432;2023-03-01T16:44:28;3.80;99.90
11446;DHT22;5779;64.178;15.432;2023-03-01T16:47:17;3.80;99.90
11446;DHT22;5779;64.178;15.432;2023-03-01T16:50:04;3.80;99.90
11446;DHT22;5779;64.178;15.432;2023-03-01T16:52:51;3.90;99.90
11446;DHT22;5779;64.178;15.432;2023-03-01T16:55:38;3.80;99.90
11446;DHT22;5779;64.178;15.432;2023-03-01T16:58:30;3.80;99.90
11446;DHT22;5779;64.178;15.432;2023-03-01T17:01:19;3.80;99.90
11446;DHT22;5779;64.178;15.432;2023-03-01T17:04:11;3.90;99.90
11446;DHT22;5779;64.178;15.432;2023-03-01T17:06:58;3.90;99.90
11446;DHT22;5779;64.178;15.432;2023-03-01T17:09:46;3.80;99.90
11446;DHT22;5779;64.178;15.432;2023-03-01T17:12:33;3.70;99.90
11446;DHT22;5779;64.178;15.432;2023-03-01T17:15:19;3.80;99.90
11446;DHT22;5779;64.178;15.432;2023-03-01T17:18:07;3.90;99.90
11446;DHT22;5779;64.178;15.432;2023-03-01T17:20:55;3.90;99.90
11446;DHT22;5779;64.178;15.432;2023-03-01T17:23:43;4.10;99.90
11446;DHT22;5779;64.178;15.432;2023-03-01T17:26:31;4.00;99.90
11446;DHT22;5779;64.178;15.432;2023-03-01T17:29:17;4.00;99.90
11446;DHT22;5779;64.178;15.432;2023-03-01T17:32:05;4.00;99.90
11446;DHT22;5779;64.178;15.432;2023-03-01T17:34:51;4.00;99.90
11446;DHT22;5779;64.178;15.432;2023-03-01T17:37:40;4.20;99.90
11446;DHT22;5779;64.178;15.432;2023-03-01T17:40:30;4.20;99.90
11446;DHT22;5779;64.178;15.432;2023-03-01T17:43:17;4.10;99.90
11446;DHT22;5779;64.178;15.432;2023-03-01T17:46:04;4.00;99.90
11446;DHT22;5779;64.178;15.432;2023-03-01T17:48:50;3.90;99.90
11446;DHT22;5779;64.178;15.432;2023-03-01T17:51:37;4.00;99.90
11446;DHT22;5779;64.178;15.432;2023-03-01T17:54:26;4.00;99.90
11446;DHT22;5779;64.178;15.432;2023-03-01T17:57:12;4.00;99.90
11446;DHT22;5779;64.178;15.432;2023-03-01T17:59:59;4.00;99.90
11446;DHT22;5779;64.178;15.432;2023-03-01T18:02:46;3.90;99.90
11446;DHT22;5779;64.178;15.432;2023-03-01T18:05:34;3.90;99.90
11446;DHT22;5779;64.178;15.432;2023-03-01T18:08:21;3.80;99.90
11446;DHT22;5779;64.178;15.432;2023-03-01T18:11:10;3.80;99.90
11446;DHT22;5779;64.178;15.432;2023-03-01T18:13:57;3.70;99.90
11446;DHT22;5779;64.178;15.432;2023-03-01T18:16:44;3.70;99.90